This is the latest recevied weather packets stored in our database for station/object KB3FKJ. If no packets are shown the sender has not sent any weather packets the latest 10 day(s).
| Time | Temp. | Humidity | Pressure | Rain* | Wind** | Luminosity | Snow |
|---|---|---|---|---|---|---|---|
| 1778014117 | 17.78° C | 79% | 1007.2 hPa | 1.27 mm | - | 130 W/m² | - |
| 1778013815 | 18.89° C | 71% | 1007.3 hPa | 0 mm | - | 62 W/m² | - |
| 1778013512 | 21.67° C | 60% | 1007 hPa | 0 mm | - | 27 W/m² | - |
| 1778013208 | 22.78° C | 46% | 1006.7 hPa | 0 mm | - | 28 W/m² | - |
| 1778012905 | 22.78° C | 48% | 1006.2 hPa | 0 mm | - | 24 W/m² | - |
| 1778012601 | 23.33° C | 48% | 1006.3 hPa | 0 mm | - | 37 W/m² | - |
| 1778012297 | 23.33° C | 47% | 1006.3 hPa | 0 mm | - | 33 W/m² | - |
| 1778011995 | 23.33° C | 46% | 1006.4 hPa | 0 mm | - | 102 W/m² | - |
| 1778011693 | 23.33° C | 46% | 1006.3 hPa | 0 mm | - | 187 W/m² | - |
| 1778011390 | 22.78° C | 47% | 1006.5 hPa | 0 mm | - | 120 W/m² | - |
| 1778011085 | 22.78° C | 47% | 1006.5 hPa | 0 mm | - | 81 W/m² | - |
| 1778010783 | 23.33° C | 47% | 1006.7 hPa | 0 mm | - | 112 W/m² | - |
| 1778010480 | 23.33° C | 46% | 1006.5 hPa | 0 mm | - | 94 W/m² | - |
| 1778010177 | 22.78° C | 47% | 1006.4 hPa | 0 mm | - | 352 W/m² | - |
| 1778009876 | 22.78° C | 48% | 1006.8 hPa | 0 mm | - | 108 W/m² | - |
| 1778009575 | 22.22° C | 51% | 1006.9 hPa | 0 mm | - | 228 W/m² | - |
| 1778009273 | 23.33° C | 46% | 1006.9 hPa | 0 mm | - | 104 W/m² | - |
| 1778008970 | 23.89° C | 41% | 1006.7 hPa | 0 mm | - | 41 W/m² | - |
| 1778008668 | 23.89° C | 40% | 1006.9 hPa | 0 mm | - | 31 W/m² | - |
| 1778008367 | 23.89° C | 40% | 1006.7 hPa | 0 mm | - | 39 W/m² | - |
| 1778008062 | 23.89° C | 40% | 1006.8 hPa | 0 mm | - | 45 W/m² | - |
| 1778007758 | 23.89° C | 41% | 1006.7 hPa | 0 mm | - | 44 W/m² | - |
| 1778007455 | 24.44° C | 40% | 1006.8 hPa | 0 mm | - | 71 W/m² | - |
| 1778007151 | 24.44° C | 39% | 1006.5 hPa | 0 mm | - | 123 W/m² | - |
| 1778006847 | 25° C | 39% | 1006.3 hPa | 0 mm | - | 141 W/m² | - |
* Rain latest hour (hover to see other rain measurements)
** Current wind speed in m/s (hover to see current wind gust speed)